Aérodrome :
LOGIN :

S'inscrire | Disclaimer

   EN    FR    IT 

 










Légende :    VFR   VFR Marginal   IFR   IFR Intensif   IFR Très Intensif
Visi : 
Plafond : 
>= 8 km
>= 3000ft
5 à 8 km
1000 à 3000 ft
1500m à 5 km
500 à 1000 ft
800 à 1500m
200 à 500 ft
< 800m
< 200 ft
Symboles :   Orages  Brouillard  Fortes neiges  Fortes précipitations  Vent > 20 kt
SIGMETs :   Divers  Orages  Givrage  Turbulence  Onde Orograph.  Cendres Volcan.







- Altitude de l'aérodrome : 359 ft
- Code IATA : BVA
- Voir les cartes d'approche


LFOB - Beauvais

DERNIER METAR :
  • 202030Z AUTO 32012KT 9999 BKN015/// BKN020/// OVC025/// ///TCU 09/07 Q1002 TEMPO 3000 RA BECMG BKN016

METARs EXPIRÉS :
  • 202000Z AUTO 31009KT 9999 -RA BKN015/// BKN021/// BKN029/// ///TCU 09/08 Q1002 TEMPO 3000 RA BKN006 BKN013TCU
  • 201930Z AUTO 28007KT 9999 FEW020 BKN034 BKN040 08/07 Q1001 TEMPO 3000 RA BKN006 BKN013TCU
  • 201900Z AUTO 28006KT 9999 BKN018 BKN026 BKN049 08/07 Q1000 TEMPO 3000 RA BKN006 BKN013TCU
  • 201830Z AUTO 28008KT 9999 FEW008 SCT031 BKN043 08/08 Q1000 TEMPO 3000 RA BKN006 BKN013TCU
  • 201800Z AUTO 29010KT 6000 -RA FEW010 SCT027 BKN037 09/08 Q1000 TEMPO 3000 RA BKN006 BKN013TCU

TAF TAF LFOB
Valide du 20 à 18h jusqu'au 21 à 18h UTC


201700Z 2018/2118 29013KT 9999 BKN016
TEMPO 2018/2022 3000 RA BKN006 BKN013TCU
BECMG 2100/2103 VRB02KT
BECMG 2107/2109 4000 RA OVC012
TEMPO 2109/2118 2000 RADZ OVC004
BECMG 2112/2114 15010KT
ATIS : +33 3 44 11 49 28
Pas de NOTAMs connus pour ce terrain.
2 SIGMETs publiés pour la FIR Paris (LFFF) :
 
Turbulence forte
LFFF SIGMET 8 VALID 202100/210100 LFPW
LFFF PARIS FIR/UIR SEV TURB FCST NE OF LINE N5100 E00145 - N4815 E00530 FL180/290 MOV NE 20KT NC=
Turbulence forte
LFFF SIGMET 7 VALID 201700/202100 LFPW
LFFF PARIS FIR/UIR SEV TURB FCST NE OF LINE N4815 E00515 - N5045 E00100 FL180/310 MOV NE 15KT NC=



MET'MAP, la Météo Aéronautique d'un coup d'oeil ! - Copyright ORBIFLY Décembre 2007 - Disclaimer

ORBIFLY MET'MAP TEAM :

Programmation & Développement : Alexandra Zaïnal
Conception & Développement : Baudouin d'Aumeries
Co-Programmation & Développement : Marc-Olivier Méhu
Soutien technique & logistique : Manuel Goepfert

Contact : metmap@orbifly.com




SOURCES & CREDITS :

   NOAA